sensor_id;sensor_type;location;lat;lon;timestamp;temperature;humidity
3976;DHT22;2002;48.812;9.180;2022-12-07T00:01:09;16.20;1.00
3976;DHT22;2002;48.812;9.180;2022-12-07T00:03:35;16.10;1.00
3976;DHT22;2002;48.812;9.180;2022-12-07T00:06:02;16.10;1.00
3976;DHT22;2002;48.812;9.180;2022-12-07T00:08:29;16.10;1.00
3976;DHT22;2002;48.812;9.180;2022-12-07T00:10:58;16.10;1.00
3976;DHT22;2002;48.812;9.180;2022-12-07T00:13:25;16.10;1.00
3976;DHT22;2002;48.812;9.180;2022-12-07T00:15:51;16.10;1.00
3976;DHT22;2002;48.812;9.180;2022-12-07T00:18:16;16.20;1.00
3976;DHT22;2002;48.812;9.180;2022-12-07T00:20:42;16.10;1.00
3976;DHT22;2002;48.812;9.180;2022-12-07T00:23:07;16.10;1.00
3976;DHT22;2002;48.812;9.180;2022-12-07T00:25:33;16.20;1.00
3976;DHT22;2002;48.812;9.180;2022-12-07T00:27:58;16.30;1.00
3976;DHT22;2002;48.812;9.180;2022-12-07T00:30:24;16.40;1.00
3976;DHT22;2002;48.812;9.180;2022-12-07T00:32:50;16.40;1.00
3976;DHT22;2002;48.812;9.180;2022-12-07T00:35:15;16.40;1.00
3976;DHT22;2002;48.812;9.180;2022-12-07T00:37:41;16.40;1.00
3976;DHT22;2002;48.812;9.180;2022-12-07T00:40:07;16.30;1.00
3976;DHT22;2002;48.812;9.180;2022-12-07T00:42:33;16.30;1.00
3976;DHT22;2002;48.812;9.180;2022-12-07T00:44:58;16.30;1.00
3976;DHT22;2002;48.812;9.180;2022-12-07T00:47:24;16.30;1.00
3976;DHT22;2002;48.812;9.180;2022-12-07T00:49:49;16.20;1.00
3976;DHT22;2002;48.812;9.180;2022-12-07T00:52:15;16.20;1.00
3976;DHT22;2002;48.812;9.180;2022-12-07T00:54:40;16.20;1.00
3976;DHT22;2002;48.812;9.180;2022-12-07T00:57:06;16.20;1.00
3976;DHT22;2002;48.812;9.180;2022-12-07T00:59:32;16.20;1.00
3976;DHT22;2002;48.812;9.180;2022-12-07T01:01:57;16.20;1.00
3976;DHT22;2002;48.812;9.180;2022-12-07T01:04:23;16.20;1.00
3976;DHT22;2002;48.812;9.180;2022-12-07T01:06:48;16.20;1.00
3976;DHT22;2002;48.812;9.180;2022-12-07T01:09:14;16.10;1.00
3976;DHT22;2002;48.812;9.180;2022-12-07T01:11:39;16.10;1.00
3976;DHT22;2002;48.812;9.180;2022-12-07T01:14:05;16.10;1.00
3976;DHT22;2002;48.812;9.180;2022-12-07T01:16:31;16.10;1.00
3976;DHT22;2002;48.812;9.180;2022-12-07T01:18:58;16.10;1.00
3976;DHT22;2002;48.812;9.180;2022-12-07T01:21:27;16.10;1.00
3976;DHT22;2002;48.812;9.180;2022-12-07T01:23:53;16.10;1.00
3976;DHT22;2002;48.812;9.180;2022-12-07T01:26:24;16.10;1.00
3976;DHT22;2002;48.812;9.180;2022-12-07T01:28:50;16.10;1.00
3976;DHT22;2002;48.812;9.180;2022-12-07T01:31:18;16.10;1.00
3976;DHT22;2002;48.812;9.180;2022-12-07T01:33:47;16.10;1.00
3976;DHT22;2002;48.812;9.180;2022-12-07T01:36:18;16.10;1.00
3976;DHT22;2002;48.812;9.180;2022-12-07T01:38:45;16.10;1.00
3976;DHT22;2002;48.812;9.180;2022-12-07T01:41:12;16.10;1.00
3976;DHT22;2002;48.812;9.180;2022-12-07T01:46:53;16.10;1.00
3976;DHT22;2002;48.812;9.180;2022-12-07T01:49:45;16.10;1.00
3976;DHT22;2002;48.812;9.180;2022-12-07T01:52:15;16.10;1.00
3976;DHT22;2002;48.812;9.180;2022-12-07T01:54:44;16.10;1.00
3976;DHT22;2002;48.812;9.180;2022-12-07T01:57:11;16.10;1.00
3976;DHT22;2002;48.812;9.180;2022-12-07T01:59:38;16.10;1.00
3976;DHT22;2002;48.812;9.180;2022-12-07T02:02:08;16.10;1.00
3976;DHT22;2002;48.812;9.180;2022-12-07T02:04:36;16.20;1.00
3976;DHT22;2002;48.812;9.180;2022-12-07T02:07:03;16.30;1.00
3976;DHT22;2002;48.812;9.180;2022-12-07T02:09:30;16.30;1.00
3976;DHT22;2002;48.812;9.180;2022-12-07T02:11:55;16.30;1.00
3976;DHT22;2002;48.812;9.180;2022-12-07T02:14:21;16.30;1.00
3976;DHT22;2002;48.812;9.180;2022-12-07T02:17:08;16.30;1.00
3976;DHT22;2002;48.812;9.180;2022-12-07T02:28:58;16.20;1.00
3976;DHT22;2002;48.812;9.180;2022-12-07T02:31:30;16.20;1.00
3976;DHT22;2002;48.812;9.180;2022-12-07T02:34:07;16.10;1.00
3976;DHT22;2002;48.812;9.180;2022-12-07T02:36:39;16.10;1.00
3976;DHT22;2002;48.812;9.180;2022-12-07T02:39:15;16.10;1.00
3976;DHT22;2002;48.812;9.180;2022-12-07T02:41:52;16.10;1.00
3976;DHT22;2002;48.812;9.180;2022-12-07T02:44:23;16.10;1.00
3976;DHT22;2002;48.812;9.180;2022-12-07T02:47:01;16.10;1.00
3976;DHT22;2002;48.812;9.180;2022-12-07T02:49:29;16.10;1.00
3976;DHT22;2002;48.812;9.180;2022-12-07T02:51:55;16.10;1.00
3976;DHT22;2002;48.812;9.180;2022-12-07T02:54:21;16.10;1.00
3976;DHT22;2002;48.812;9.180;2022-12-07T03:04:51;16.10;1.00
3976;DHT22;2002;48.812;9.180;2022-12-07T03:10:18;16.00;1.00
3976;DHT22;2002;48.812;9.180;2022-12-07T03:16:08;16.00;1.00
3976;DHT22;2002;48.812;9.180;2022-12-07T03:18:48;16.00;1.00
3976;DHT22;2002;48.812;9.180;2022-12-07T03:21:18;16.00;1.00
3976;DHT22;2002;48.812;9.180;2022-12-07T03:23:47;16.10;1.00
3976;DHT22;2002;48.812;9.180;2022-12-07T03:26:15;16.00;1.00
3976;DHT22;2002;48.812;9.180;2022-12-07T03:28:48;16.10;1.00
3976;DHT22;2002;48.812;9.180;2022-12-07T03:31:21;16.10;1.00
3976;DHT22;2002;48.812;9.180;2022-12-07T03:34:04;16.20;1.00
3976;DHT22;2002;48.812;9.180;2022-12-07T03:36:36;16.30;1.00
3976;DHT22;2002;48.812;9.180;2022-12-07T03:39:19;16.30;1.00
3976;DHT22;2002;48.812;9.180;2022-12-07T03:41:46;16.30;1.00
3976;DHT22;2002;48.812;9.180;2022-12-07T03:44:12;16.20;1.00
3976;DHT22;2002;48.812;9.180;2022-12-07T03:49:30;16.20;1.00
3976;DHT22;2002;48.812;9.180;2022-12-07T03:57:28;16.20;1.00
3976;DHT22;2002;48.812;9.180;2022-12-07T03:59:55;16.10;1.00
3976;DHT22;2002;48.812;9.180;2022-12-07T04:02:22;16.10;1.00
3976;DHT22;2002;48.812;9.180;2022-12-07T04:04:49;16.10;1.00
3976;DHT22;2002;48.812;9.180;2022-12-07T04:07:15;16.10;1.00
3976;DHT22;2002;48.812;9.180;2022-12-07T04:09:40;16.10;1.00
3976;DHT22;2002;48.812;9.180;2022-12-07T04:12:06;16.10;1.00
3976;DHT22;2002;48.812;9.180;2022-12-07T04:14:32;16.10;1.00
3976;DHT22;2002;48.812;9.180;2022-12-07T04:16:58;16.10;1.00
3976;DHT22;2002;48.812;9.180;2022-12-07T04:19:27;16.00;1.00
3976;DHT22;2002;48.812;9.180;2022-12-07T04:21:54;16.00;1.00
3976;DHT22;2002;48.812;9.180;2022-12-07T04:24:19;16.10;1.00
3976;DHT22;2002;48.812;9.180;2022-12-07T04:26:46;16.00;1.00
3976;DHT22;2002;48.812;9.180;2022-12-07T04:29:12;16.00;1.00
3976;DHT22;2002;48.812;9.180;2022-12-07T04:31:38;16.00;1.00
3976;DHT22;2002;48.812;9.180;2022-12-07T04:34:04;16.00;1.00
3976;DHT22;2002;48.812;9.180;2022-12-07T04:36:31;16.00;1.00
3976;DHT22;2002;48.812;9.180;2022-12-07T04:38:56;16.00;1.00
3976;DHT22;2002;48.812;9.180;2022-12-07T04:41:23;16.00;1.00
3976;DHT22;2002;48.812;9.180;2022-12-07T04:44:03;16.00;1.00
3976;DHT22;2002;48.812;9.180;2022-12-07T04:46:30;16.00;1.00
3976;DHT22;2002;48.812;9.180;2022-12-07T04:48:56;16.00;1.00
3976;DHT22;2002;48.812;9.180;2022-12-07T04:51:28;16.00;1.00
3976;DHT22;2002;48.812;9.180;2022-12-07T04:53:54;16.00;1.00
3976;DHT22;2002;48.812;9.180;2022-12-07T04:56:21;16.00;1.00
3976;DHT22;2002;48.812;9.180;2022-12-07T04:58:47;16.10;1.00
3976;DHT22;2002;48.812;9.180;2022-12-07T05:01:14;16.20;1.00
3976;DHT22;2002;48.812;9.180;2022-12-07T05:03:40;16.40;1.00
3976;DHT22;2002;48.812;9.180;2022-12-07T05:06:06;16.40;1.00
3976;DHT22;2002;48.812;9.180;2022-12-07T05:08:33;16.40;1.00
3976;DHT22;2002;48.812;9.180;2022-12-07T05:10:59;16.40;1.00
3976;DHT22;2002;48.812;9.180;2022-12-07T05:13:25;16.40;1.00
3976;DHT22;2002;48.812;9.180;2022-12-07T05:15:51;16.40;1.00
3976;DHT22;2002;48.812;9.180;2022-12-07T05:18:17;16.40;1.00
3976;DHT22;2002;48.812;9.180;2022-12-07T05:20:43;16.30;1.00
3976;DHT22;2002;48.812;9.180;2022-12-07T05:23:09;16.30;1.00
3976;DHT22;2002;48.812;9.180;2022-12-07T05:25:35;16.30;1.00
3976;DHT22;2002;48.812;9.180;2022-12-07T05:28:01;16.30;1.00
3976;DHT22;2002;48.812;9.180;2022-12-07T05:30:26;16.30;1.00
3976;DHT22;2002;48.812;9.180;2022-12-07T05:32:52;16.30;1.00
3976;DHT22;2002;48.812;9.180;2022-12-07T05:35:18;16.30;1.00
3976;DHT22;2002;48.812;9.180;2022-12-07T05:37:44;16.30;1.00
3976;DHT22;2002;48.812;9.180;2022-12-07T05:40:11;16.30;1.00
3976;DHT22;2002;48.812;9.180;2022-12-07T05:42:38;16.30;1.00
3976;DHT22;2002;48.812;9.180;2022-12-07T05:45:04;16.40;1.00
3976;DHT22;2002;48.812;9.180;2022-12-07T05:47:30;16.30;1.00
3976;DHT22;2002;48.812;9.180;2022-12-07T05:49:55;16.30;1.00
3976;DHT22;2002;48.812;9.180;2022-12-07T05:52:21;16.30;1.00
3976;DHT22;2002;48.812;9.180;2022-12-07T05:54:46;16.30;1.00
3976;DHT22;2002;48.812;9.180;2022-12-07T05:57:12;16.40;1.00
3976;DHT22;2002;48.812;9.180;2022-12-07T05:59:38;16.40;1.00
3976;DHT22;2002;48.812;9.180;2022-12-07T06:02:06;16.40;1.00
3976;DHT22;2002;48.812;9.180;2022-12-07T06:04:35;16.40;1.00
3976;DHT22;2002;48.812;9.180;2022-12-07T06:07:01;16.40;1.00
3976;DHT22;2002;48.812;9.180;2022-12-07T06:09:28;16.40;1.00
3976;DHT22;2002;48.812;9.180;2022-12-07T06:11:54;16.50;1.00
3976;DHT22;2002;48.812;9.180;2022-12-07T06:14:39;16.40;1.00
3976;DHT22;2002;48.812;9.180;2022-12-07T06:17:05;16.40;1.00
3976;DHT22;2002;48.812;9.180;2022-12-07T06:19:31;16.40;1.00
3976;DHT22;2002;48.812;9.180;2022-12-07T06:21:57;16.40;1.00
3976;DHT22;2002;48.812;9.180;2022-12-07T06:24:22;16.40;1.00
3976;DHT22;2002;48.812;9.180;2022-12-07T06:26:48;16.40;1.00
3976;DHT22;2002;48.812;9.180;2022-12-07T06:29:14;16.40;1.00
3976;DHT22;2002;48.812;9.180;2022-12-07T06:31:40;16.40;1.00
3976;DHT22;2002;48.812;9.180;2022-12-07T06:34:12;16.40;1.00
3976;DHT22;2002;48.812;9.180;2022-12-07T06:36:38;16.40;1.00
3976;DHT22;2002;48.812;9.180;2022-12-07T06:39:05;16.40;1.00
3976;DHT22;2002;48.812;9.180;2022-12-07T06:41:31;16.40;1.00
3976;DHT22;2002;48.812;9.180;2022-12-07T06:43:57;16.50;1.00
3976;DHT22;2002;48.812;9.180;2022-12-07T06:46:23;16.50;1.00
3976;DHT22;2002;48.812;9.180;2022-12-07T06:48:49;16.60;1.00
3976;DHT22;2002;48.812;9.180;2022-12-07T06:51:15;16.60;1.00
3976;DHT22;2002;48.812;9.180;2022-12-07T06:53:40;16.60;1.00
3976;DHT22;2002;48.812;9.180;2022-12-07T06:56:06;16.60;1.00
3976;DHT22;2002;48.812;9.180;2022-12-07T06:58:32;16.60;1.00
3976;DHT22;2002;48.812;9.180;2022-12-07T07:00:58;16.60;1.00
3976;DHT22;2002;48.812;9.180;2022-12-07T07:03:23;16.50;1.00
3976;DHT22;2002;48.812;9.180;2022-12-07T07:05:49;16.50;1.00
3976;DHT22;2002;48.812;9.180;2022-12-07T07:08:15;16.50;1.00
3976;DHT22;2002;48.812;9.180;2022-12-07T07:10:41;16.50;1.00
3976;DHT22;2002;48.812;9.180;2022-12-07T07:13:07;16.50;1.00
3976;DHT22;2002;48.812;9.180;2022-12-07T07:15:33;16.50;1.00
3976;DHT22;2002;48.812;9.180;2022-12-07T07:17:59;16.50;1.00
3976;DHT22;2002;48.812;9.180;2022-12-07T07:20:25;16.50;1.00
3976;DHT22;2002;48.812;9.180;2022-12-07T07:22:51;16.50;1.00
3976;DHT22;2002;48.812;9.180;2022-12-07T07:25:19;16.50;1.00
3976;DHT22;2002;48.812;9.180;2022-12-07T07:27:44;16.50;1.00
3976;DHT22;2002;48.812;9.180;2022-12-07T07:30:10;16.50;1.00
3976;DHT22;2002;48.812;9.180;2022-12-07T07:32:36;16.40;1.00
3976;DHT22;2002;48.812;9.180;2022-12-07T07:35:03;16.40;1.00
3976;DHT22;2002;48.812;9.180;2022-12-07T07:37:29;16.50;1.00
3976;DHT22;2002;48.812;9.180;2022-12-07T07:39:54;16.50;1.00
3976;DHT22;2002;48.812;9.180;2022-12-07T07:42:20;16.40;1.00
3976;DHT22;2002;48.812;9.180;2022-12-07T07:44:47;16.50;1.00
3976;DHT22;2002;48.812;9.180;2022-12-07T07:47:12;16.50;1.00
3976;DHT22;2002;48.812;9.180;2022-12-07T07:49:38;16.50;1.00
3976;DHT22;2002;48.812;9.180;2022-12-07T07:52:05;16.40;1.00
3976;DHT22;2002;48.812;9.180;2022-12-07T07:54:31;16.50;1.00
3976;DHT22;2002;48.812;9.180;2022-12-07T07:56:57;16.50;1.00
3976;DHT22;2002;48.812;9.180;2022-12-07T07:59:22;16.50;1.00
3976;DHT22;2002;48.812;9.180;2022-12-07T08:01:48;16.40;1.00
3976;DHT22;2002;48.812;9.180;2022-12-07T08:04:14;16.40;1.00
3976;DHT22;2002;48.812;9.180;2022-12-07T08:06:39;16.40;1.00
3976;DHT22;2002;48.812;9.180;2022-12-07T08:09:07;16.40;1.00
3976;DHT22;2002;48.812;9.180;2022-12-07T08:11:33;16.40;1.00
3976;DHT22;2002;48.812;9.180;2022-12-07T08:13:59;16.40;1.00
3976;DHT22;2002;48.812;9.180;2022-12-07T08:16:24;16.40;1.00
3976;DHT22;2002;48.812;9.180;2022-12-07T08:18:50;16.40;1.00
3976;DHT22;2002;48.812;9.180;2022-12-07T08:21:16;16.40;1.00
3976;DHT22;2002;48.812;9.180;2022-12-07T08:23:42;16.40;1.00
3976;DHT22;2002;48.812;9.180;2022-12-07T08:26:10;16.50;1.00
3976;DHT22;2002;48.812;9.180;2022-12-07T08:28:36;16.50;1.00
3976;DHT22;2002;48.812;9.180;2022-12-07T08:31:08;16.50;1.00
3976;DHT22;2002;48.812;9.180;2022-12-07T08:33:36;16.50;1.00
3976;DHT22;2002;48.812;9.180;2022-12-07T08:36:07;16.50;1.00
3976;DHT22;2002;48.812;9.180;2022-12-07T08:38:37;16.40;1.00
3976;DHT22;2002;48.812;9.180;2022-12-07T08:41:04;16.40;1.00
3976;DHT22;2002;48.812;9.180;2022-12-07T08:43:29;16.40;1.00
3976;DHT22;2002;48.812;9.180;2022-12-07T08:46:17;16.40;1.00
3976;DHT22;2002;48.812;9.180;2022-12-07T08:48:49;16.50;1.00
3976;DHT22;2002;48.812;9.180;2022-12-07T08:51:15;16.60;1.00
3976;DHT22;2002;48.812;9.180;2022-12-07T08:53:43;16.70;1.00
3976;DHT22;2002;48.812;9.180;2022-12-07T08:56:09;16.70;1.00
3976;DHT22;2002;48.812;9.180;2022-12-07T08:58:36;16.70;1.00
3976;DHT22;2002;48.812;9.180;2022-12-07T09:01:03;16.70;1.00
3976;DHT22;2002;48.812;9.180;2022-12-07T09:03:29;16.70;1.00
3976;DHT22;2002;48.812;9.180;2022-12-07T09:05:55;16.70;1.00
3976;DHT22;2002;48.812;9.180;2022-12-07T09:08:22;16.70;1.00
3976;DHT22;2002;48.812;9.180;2022-12-07T09:10:51;16.60;1.00
3976;DHT22;2002;48.812;9.180;2022-12-07T09:13:17;16.60;1.00
3976;DHT22;2002;48.812;9.180;2022-12-07T09:15:42;16.60;1.00
3976;DHT22;2002;48.812;9.180;2022-12-07T09:18:08;16.50;1.00
3976;DHT22;2002;48.812;9.180;2022-12-07T09:20:33;16.50;1.00
3976;DHT22;2002;48.812;9.180;2022-12-07T09:22:59;16.50;1.00
3976;DHT22;2002;48.812;9.180;2022-12-07T09:25:24;16.50;1.00
3976;DHT22;2002;48.812;9.180;2022-12-07T09:27:57;16.50;1.00
3976;DHT22;2002;48.812;9.180;2022-12-07T09:30:23;16.50;1.00
3976;DHT22;2002;48.812;9.180;2022-12-07T09:32:48;16.50;1.00
3976;DHT22;2002;48.812;9.180;2022-12-07T09:35:14;16.50;1.00
3976;DHT22;2002;48.812;9.180;2022-12-07T09:37:40;16.50;1.00
3976;DHT22;2002;48.812;9.180;2022-12-07T09:40:06;16.50;1.00
3976;DHT22;2002;48.812;9.180;2022-12-07T09:42:52;16.50;1.00
3976;DHT22;2002;48.812;9.180;2022-12-07T09:45:24;16.50;1.00
3976;DHT22;2002;48.812;9.180;2022-12-07T09:47:50;16.50;1.00
3976;DHT22;2002;48.812;9.180;2022-12-07T09:50:20;16.50;1.00
3976;DHT22;2002;48.812;9.180;2022-12-07T09:52:47;16.50;1.00
3976;DHT22;2002;48.812;9.180;2022-12-07T09:55:16;16.50;1.00
3976;DHT22;2002;48.812;9.180;2022-12-07T09:57:43;16.50;1.00
3976;DHT22;2002;48.812;9.180;2022-12-07T10:00:16;16.40;1.00
3976;DHT22;2002;48.812;9.180;2022-12-07T10:02:44;16.40;1.00
3976;DHT22;2002;48.812;9.180;2022-12-07T10:05:18;16.40;1.00
3976;DHT22;2002;48.812;9.180;2022-12-07T10:07:44;16.50;1.00
3976;DHT22;2002;48.812;9.180;2022-12-07T10:10:31;16.50;1.00
3976;DHT22;2002;48.812;9.180;2022-12-07T10:13:06;16.50;1.00
3976;DHT22;2002;48.812;9.180;2022-12-07T10:18:36;16.50;1.00
3976;DHT22;2002;48.812;9.180;2022-12-07T10:23:36;16.40;1.00
3976;DHT22;2002;48.812;9.180;2022-12-07T10:26:31;16.50;1.00
3976;DHT22;2002;48.812;9.180;2022-12-07T10:29:14;16.40;1.00
3976;DHT22;2002;48.812;9.180;2022-12-07T10:31:42;16.40;1.00
3976;DHT22;2002;48.812;9.180;2022-12-07T10:34:27;16.40;1.00
3976;DHT22;2002;48.812;9.180;2022-12-07T10:39:52;16.40;1.00
3976;DHT22;2002;48.812;9.180;2022-12-07T10:44:46;16.40;1.00
3976;DHT22;2002;48.812;9.180;2022-12-07T11:01:32;16.60;1.00
3976;DHT22;2002;48.812;9.180;2022-12-07T11:04:22;16.70;1.00
3976;DHT22;2002;48.812;9.180;2022-12-07T11:06:54;16.70;1.00
3976;DHT22;2002;48.812;9.180;2022-12-07T11:09:46;16.70;1.00
3976;DHT22;2002;48.812;9.180;2022-12-07T11:12:32;16.70;1.00
3976;DHT22;2002;48.812;9.180;2022-12-07T11:15:04;16.70;1.00
3976;DHT22;2002;48.812;9.180;2022-12-07T11:17:36;16.60;1.00
3976;DHT22;2002;48.812;9.180;2022-12-07T11:25:51;16.60;1.00
3976;DHT22;2002;48.812;9.180;2022-12-07T11:28:32;16.50;1.00
3976;DHT22;2002;48.812;9.180;2022-12-07T11:31:09;16.50;1.00
3976;DHT22;2002;48.812;9.180;2022-12-07T11:33:47;16.50;1.00
3976;DHT22;2002;48.812;9.180;2022-12-07T11:38:49;16.50;1.00
3976;DHT22;2002;48.812;9.180;2022-12-07T11:41:22;16.50;1.00
3976;DHT22;2002;48.812;9.180;2022-12-07T11:44:05;16.50;1.00
3976;DHT22;2002;48.812;9.180;2022-12-07T11:46:45;16.50;1.00
3976;DHT22;2002;48.812;9.180;2022-12-07T11:49:37;16.50;1.00
3976;DHT22;2002;48.812;9.180;2022-12-07T11:52:31;16.50;1.00
3976;DHT22;2002;48.812;9.180;2022-12-07T11:55:00;16.40;1.00
3976;DHT22;2002;48.812;9.180;2022-12-07T11:57:48;16.50;1.00
3976;DHT22;2002;48.812;9.180;2022-12-07T12:00:17;16.50;1.00
3976;DHT22;2002;48.812;9.180;2022-12-07T12:02:58;16.50;1.00
3976;DHT22;2002;48.812;9.180;2022-12-07T12:05:26;16.50;1.00
3976;DHT22;2002;48.812;9.180;2022-12-07T12:08:17;16.50;1.00
3976;DHT22;2002;48.812;9.180;2022-12-07T12:13:26;16.50;1.00
3976;DHT22;2002;48.812;9.180;2022-12-07T12:18:51;16.50;1.00
3976;DHT22;2002;48.812;9.180;2022-12-07T12:21:22;16.40;1.00
3976;DHT22;2002;48.812;9.180;2022-12-07T12:24:09;16.50;1.00
3976;DHT22;2002;48.812;9.180;2022-12-07T12:26:37;16.40;1.00
3976;DHT22;2002;48.812;9.180;2022-12-07T12:29:05;16.40;1.00
3976;DHT22;2002;48.812;9.180;2022-12-07T12:31:37;16.50;1.00
3976;DHT22;2002;48.812;9.180;2022-12-07T12:36:55;16.40;1.00
3976;DHT22;2002;48.812;9.180;2022-12-07T12:39:21;16.40;1.00
3976;DHT22;2002;48.812;9.180;2022-12-07T12:49:41;16.40;1.00
3976;DHT22;2002;48.812;9.180;2022-12-07T12:57:35;16.40;1.00
3976;DHT22;2002;48.812;9.180;2022-12-07T13:00:20;16.40;1.00
3976;DHT22;2002;48.812;9.180;2022-12-07T13:02:52;16.40;1.00
3976;DHT22;2002;48.812;9.180;2022-12-07T13:05:21;16.50;1.00
3976;DHT22;2002;48.812;9.180;2022-12-07T13:08:00;16.60;1.00
3976;DHT22;2002;48.812;9.180;2022-12-07T13:12:58;16.90;1.00
3976;DHT22;2002;48.812;9.180;2022-12-07T13:26:22;16.70;1.00
3976;DHT22;2002;48.812;9.180;2022-12-07T13:29:18;16.60;1.00
3976;DHT22;2002;48.812;9.180;2022-12-07T13:31:50;16.60;1.00
3976;DHT22;2002;48.812;9.180;2022-12-07T13:34:37;16.50;1.00
3976;DHT22;2002;48.812;9.180;2022-12-07T13:37:21;16.50;1.00
3976;DHT22;2002;48.812;9.180;2022-12-07T13:39:56;16.50;1.00
3976;DHT22;2002;48.812;9.180;2022-12-07T13:42:31;16.50;1.00
3976;DHT22;2002;48.812;9.180;2022-12-07T13:44:58;16.50;1.00
3976;DHT22;2002;48.812;9.180;2022-12-07T13:47:59;16.50;1.00
3976;DHT22;2002;48.812;9.180;2022-12-07T13:50:30;16.40;1.00
3976;DHT22;2002;48.812;9.180;2022-12-07T13:53:01;16.40;1.00
3976;DHT22;2002;48.812;9.180;2022-12-07T13:55:28;16.40;1.00
3976;DHT22;2002;48.812;9.180;2022-12-07T13:57:55;16.40;1.00
3976;DHT22;2002;48.812;9.180;2022-12-07T14:00:28;16.40;1.00
3976;DHT22;2002;48.812;9.180;2022-12-07T14:03:04;16.40;1.00
3976;DHT22;2002;48.812;9.180;2022-12-07T14:05:32;16.50;1.00
3976;DHT22;2002;48.812;9.180;2022-12-07T14:10:39;16.40;1.00
3976;DHT22;2002;48.812;9.180;2022-12-07T14:15:53;16.40;1.00
3976;DHT22;2002;48.812;9.180;2022-12-07T14:21:13;16.50;1.00
3976;DHT22;2002;48.812;9.180;2022-12-07T14:23:40;16.40;1.00
3976;DHT22;2002;48.812;9.180;2022-12-07T14:26:18;16.40;1.00
3976;DHT22;2002;48.812;9.180;2022-12-07T14:28:44;16.40;1.00
3976;DHT22;2002;48.812;9.180;2022-12-07T14:31:16;16.40;1.00
3976;DHT22;2002;48.812;9.180;2022-12-07T14:33:43;16.40;1.00
3976;DHT22;2002;48.812;9.180;2022-12-07T14:36:13;16.40;1.00
3976;DHT22;2002;48.812;9.180;2022-12-07T14:38:39;16.40;1.00
3976;DHT22;2002;48.812;9.180;2022-12-07T14:41:10;16.40;1.00
3976;DHT22;2002;48.812;9.180;2022-12-07T14:43:56;16.40;1.00
3976;DHT22;2002;48.812;9.180;2022-12-07T14:46:22;16.40;1.00
3976;DHT22;2002;48.812;9.180;2022-12-07T14:48:48;16.40;1.00
3976;DHT22;2002;48.812;9.180;2022-12-07T14:51:13;16.40;1.00
3976;DHT22;2002;48.812;9.180;2022-12-07T14:53:48;16.40;1.00
3976;DHT22;2002;48.812;9.180;2022-12-07T14:56:15;16.30;1.00
3976;DHT22;2002;48.812;9.180;2022-12-07T14:58:41;16.40;1.00
3976;DHT22;2002;48.812;9.180;2022-12-07T15:01:06;16.30;1.00
3976;DHT22;2002;48.812;9.180;2022-12-07T15:03:32;16.40;1.00
3976;DHT22;2002;48.812;9.180;2022-12-07T15:06:00;16.40;1.00
3976;DHT22;2002;48.812;9.180;2022-12-07T15:08:26;16.40;1.00
3976;DHT22;2002;48.812;9.180;2022-12-07T15:10:51;16.40;1.00
3976;DHT22;2002;48.812;9.180;2022-12-07T15:13:17;16.40;1.00
3976;DHT22;2002;48.812;9.180;2022-12-07T15:16:01;16.40;1.00
3976;DHT22;2002;48.812;9.180;2022-12-07T15:18:27;16.60;1.00
3976;DHT22;2002;48.812;9.180;2022-12-07T15:20:52;16.80;1.00
3976;DHT22;2002;48.812;9.180;2022-12-07T15:23:18;16.80;1.00
3976;DHT22;2002;48.812;9.180;2022-12-07T15:25:47;16.80;1.00
3976;DHT22;2002;48.812;9.180;2022-12-07T15:28:20;16.70;1.00
3976;DHT22;2002;48.812;9.180;2022-12-07T15:30:45;16.70;1.00
3976;DHT22;2002;48.812;9.180;2022-12-07T15:33:12;16.60;1.00
3976;DHT22;2002;48.812;9.180;2022-12-07T15:35:42;16.60;1.00
3976;DHT22;2002;48.812;9.180;2022-12-07T15:38:08;16.60;1.00
3976;DHT22;2002;48.812;9.180;2022-12-07T15:40:33;16.60;1.00
3976;DHT22;2002;48.812;9.180;2022-12-07T15:43:00;16.50;1.00
3976;DHT22;2002;48.812;9.180;2022-12-07T15:45:26;16.50;1.00
3976;DHT22;2002;48.812;9.180;2022-12-07T15:47:51;16.50;1.00
3976;DHT22;2002;48.812;9.180;2022-12-07T15:50:17;16.60;1.00
3976;DHT22;2002;48.812;9.180;2022-12-07T15:52:43;16.50;1.00
3976;DHT22;2002;48.812;9.180;2022-12-07T15:55:11;16.50;1.00
3976;DHT22;2002;48.812;9.180;2022-12-07T15:57:37;16.40;1.00
3976;DHT22;2002;48.812;9.180;2022-12-07T16:00:07;16.50;1.00
3976;DHT22;2002;48.812;9.180;2022-12-07T16:02:34;16.40;1.00
3976;DHT22;2002;48.812;9.180;2022-12-07T16:04:59;16.40;1.00
3976;DHT22;2002;48.812;9.180;2022-12-07T16:07:25;16.40;1.00
3976;DHT22;2002;48.812;9.180;2022-12-07T16:09:50;16.40;1.00
3976;DHT22;2002;48.812;9.180;2022-12-07T16:12:16;16.40;1.00
3976;DHT22;2002;48.812;9.180;2022-12-07T16:14:42;16.40;1.00
3976;DHT22;2002;48.812;9.180;2022-12-07T16:17:09;16.40;1.00
3976;DHT22;2002;48.812;9.180;2022-12-07T16:19:35;16.40;1.00
3976;DHT22;2002;48.812;9.180;2022-12-07T16:22:01;16.40;1.00
3976;DHT22;2002;48.812;9.180;2022-12-07T16:24:27;16.30;1.00
3976;DHT22;2002;48.812;9.180;2022-12-07T16:26:52;16.30;1.00
3976;DHT22;2002;48.812;9.180;2022-12-07T16:29:19;16.30;1.00
3976;DHT22;2002;48.812;9.180;2022-12-07T16:31:45;16.30;1.00
3976;DHT22;2002;48.812;9.180;2022-12-07T16:34:11;16.30;1.00
3976;DHT22;2002;48.812;9.180;2022-12-07T16:36:38;16.30;1.00
3976;DHT22;2002;48.812;9.180;2022-12-07T16:39:04;16.30;1.00
3976;DHT22;2002;48.812;9.180;2022-12-07T16:41:30;16.30;1.00
3976;DHT22;2002;48.812;9.180;2022-12-07T16:43:55;16.30;1.00
3976;DHT22;2002;48.812;9.180;2022-12-07T16:46:21;16.30;1.00
3976;DHT22;2002;48.812;9.180;2022-12-07T16:48:47;16.30;1.00
3976;DHT22;2002;48.812;9.180;2022-12-07T16:51:13;16.30;1.00
3976;DHT22;2002;48.812;9.180;2022-12-07T16:53:41;16.30;1.00
3976;DHT22;2002;48.812;9.180;2022-12-07T16:56:12;16.30;1.00
3976;DHT22;2002;48.812;9.180;2022-12-07T16:58:38;16.30;1.00
3976;DHT22;2002;48.812;9.180;2022-12-07T17:01:18;16.30;1.00
3976;DHT22;2002;48.812;9.180;2022-12-07T17:03:44;16.30;1.00
3976;DHT22;2002;48.812;9.180;2022-12-07T17:06:15;16.30;1.00
3976;DHT22;2002;48.812;9.180;2022-12-07T17:08:42;16.30;1.00
3976;DHT22;2002;48.812;9.180;2022-12-07T17:11:16;16.30;1.00
3976;DHT22;2002;48.812;9.180;2022-12-07T17:13:43;16.30;1.00
3976;DHT22;2002;48.812;9.180;2022-12-07T17:16:27;16.30;1.00
3976;DHT22;2002;48.812;9.180;2022-12-07T17:18:53;16.30;1.00
3976;DHT22;2002;48.812;9.180;2022-12-07T17:21:19;16.20;1.00
3976;DHT22;2002;48.812;9.180;2022-12-07T17:23:45;16.30;1.00
3976;DHT22;2002;48.812;9.180;2022-12-07T17:26:15;16.40;1.00
3976;DHT22;2002;48.812;9.180;2022-12-07T17:28:41;16.60;1.00
3976;DHT22;2002;48.812;9.180;2022-12-07T17:31:09;16.80;1.00
3976;DHT22;2002;48.812;9.180;2022-12-07T17:33:35;16.80;1.00
3976;DHT22;2002;48.812;9.180;2022-12-07T17:36:01;16.80;1.00
3976;DHT22;2002;48.812;9.180;2022-12-07T17:38:34;16.80;1.00
3976;DHT22;2002;48.812;9.180;2022-12-07T17:40:59;16.70;1.00
3976;DHT22;2002;48.812;9.180;2022-12-07T17:43:25;16.60;1.00
3976;DHT22;2002;48.812;9.180;2022-12-07T17:45:50;16.60;1.00
3976;DHT22;2002;48.812;9.180;2022-12-07T17:48:16;16.60;1.00
3976;DHT22;2002;48.812;9.180;2022-12-07T17:50:41;16.50;1.00
3976;DHT22;2002;48.812;9.180;2022-12-07T17:53:27;16.50;1.00
3976;DHT22;2002;48.812;9.180;2022-12-07T17:55:54;16.50;1.00
3976;DHT22;2002;48.812;9.180;2022-12-07T17:58:20;16.40;1.00
3976;DHT22;2002;48.812;9.180;2022-12-07T18:00:45;16.40;1.00
3976;DHT22;2002;48.812;9.180;2022-12-07T18:03:11;16.40;1.00
3976;DHT22;2002;48.812;9.180;2022-12-07T18:05:37;16.40;1.00
3976;DHT22;2002;48.812;9.180;2022-12-07T18:08:04;16.40;1.00
3976;DHT22;2002;48.812;9.180;2022-12-07T18:10:30;16.30;1.00
3976;DHT22;2002;48.812;9.180;2022-12-07T18:12:56;16.30;1.00
3976;DHT22;2002;48.812;9.180;2022-12-07T18:15:41;16.30;1.00
3976;DHT22;2002;48.812;9.180;2022-12-07T18:18:07;16.30;1.00
3976;DHT22;2002;48.812;9.180;2022-12-07T18:20:32;16.30;1.00